Time;durP1;ratioP1;P1;durP2;ratioP2;P2;SDS_P1;SDS_P2;PMS_P1;PMS_P2;Temp;Humidity;BMP_temperature;BMP_pressure;BME280_temperature;BME280_humidity;BME280_pressure;Samples;Min_cycle;Max_cycle;Signal;HPM_P1;HPM_P2
2021/09/27 00:01:15;;;;;;;16.92;10.48;;;;;;;16.83;82.59;101354.44;5051817;28;20110;-42
2021/09/27 00:03:41;;;;;;;13.27;10.23;;;;;;;16.82;82.74;101359.03;5050537;28;20017;-41
2021/09/27 00:06:09;;;;;;;12.18;10.13;;;;;;;16.79;82.83;101354.00;5052216;28;20033;-42
2021/09/27 00:08:35;;;;;;;15.40;10.80;;;;;;;16.77;82.97;101356.13;5036531;28;20034;-41
2021/09/27 00:11:08;;;;;;;14.40;10.82;;;;;;;16.74;83.08;101361.09;5034172;28;20121;-41
2021/09/27 00:13:37;;;;;;;12.93;9.98;;;;;;;16.70;83.06;101360.69;5047797;28;20033;-41
2021/09/27 00:16:04;;;;;;;12.05;10.57;;;;;;;16.66;83.23;101359.41;5034924;28;20033;-41
2021/09/27 00:18:29;;;;;;;13.93;10.60;;;;;;;16.59;83.54;101358.59;5033057;28;20022;-42
2021/09/27 00:20:59;;;;;;;12.77;11.43;;;;;;;16.55;83.86;101354.63;5049918;28;20451;-42
2021/09/27 00:23:30;;;;;;;11.75;10.55;;;;;;;16.52;83.89;101357.75;5051875;28;20063;-41
2021/09/27 00:25:55;;;;;;;15.27;11.57;;;;;;;16.52;84.11;101347.72;5052900;28;20074;-41
2021/09/27 00:28:21;;;;;;;16.33;12.80;;;;;;;16.49;84.13;101341.88;5052959;28;20025;-41
2021/09/27 00:30:50;;;;;;;12.90;10.63;;;;;;;16.52;84.12;101339.56;5035732;28;20056;-41
2021/09/27 00:33:17;;;;;;;14.27;12.10;;;;;;;16.48;84.60;101337.47;5049586;28;20037;-41
2021/09/27 00:35:43;;;;;;;15.25;12.35;;;;;;;16.45;84.56;101342.28;5052829;28;20021;-42
2021/09/27 00:38:09;;;;;;;16.42;11.95;;;;;;;16.46;84.27;101329.56;5052474;28;20094;-41
2021/09/27 00:40:41;;;;;;;17.20;12.75;;;;;;;16.41;84.68;101327.44;5036846;28;20480;-41
2021/09/27 00:43:07;;;;;;;16.05;12.63;;;;;;;16.42;84.83;101333.72;5018131;28;20544;-42
2021/09/27 00:45:37;;;;;;;17.65;13.30;;;;;;;16.39;84.92;101334.97;5048233;28;20180;-41
2021/09/27 00:48:03;;;;;;;14.50;12.52;;;;;;;16.37;85.15;101334.34;5051388;28;20029;-41
2021/09/27 00:50:34;;;;;;;14.68;13.18;;;;;;;16.37;85.05;101328.91;5033317;28;20060;-41
2021/09/27 00:53:02;;;;;;;21.65;14.60;;;;;;;16.37;85.18;101338.94;5031273;28;20075;-41
2021/09/27 00:55:28;;;;;;;15.30;13.10;;;;;;;16.37;85.33;101333.50;5032731;28;20109;-41
2021/09/27 00:57:54;;;;;;;18.90;13.68;;;;;;;16.36;85.31;101326.41;5032411;28;20151;-41
2021/09/27 01:00:23;;;;;;;15.30;13.55;;;;;;;16.31;85.38;101326.19;5046504;28;20041;-41
2021/09/27 01:02:48;;;;;;;16.67;13.65;;;;;;;16.29;85.29;101329.09;5050153;28;20460;-41
2021/09/27 01:05:17;;;;;;;15.90;14.20;;;;;;;16.24;85.60;101315.31;5051966;28;20020;-41
2021/09/27 01:08:06;;;;;;;18.23;14.38;;;;;;;16.25;85.80;101325.16;5036327;28;20033;-41
2021/09/27 01:10:50;;;;;;;17.60;13.48;;;;;;;16.23;85.71;101321.81;5043395;28;20024;-42
2021/09/27 01:13:26;;;;;;;20.58;15.40;;;;;;;16.22;85.69;101322.84;5051021;28;20036;-40
2021/09/27 01:16:11;;;;;;;18.33;14.63;;;;;;;16.22;85.70;101320.16;5042689;28;20045;-40
2021/09/27 01:19:03;;;;;;;17.52;14.15;;;;;;;16.22;85.72;101325.56;5052028;28;20025;-41
2021/09/27 01:21:40;;;;;;;18.73;14.40;;;;;;;16.20;85.70;101324.94;5044150;28;20392;-40
2021/09/27 01:24:36;;;;;;;15.90;14.23;;;;;;;16.18;85.65;101319.69;5030763;28;20030;-40
2021/09/27 01:27:20;;;;;;;17.20;14.20;;;;;;;16.17;85.77;101326.19;5031940;28;20086;-41
2021/09/27 01:30:00;;;;;;;18.65;14.60;;;;;;;16.17;85.79;101322.66;5041342;28;20049;-40
2021/09/27 01:32:56;;;;;;;23.08;15.65;;;;;;;16.17;85.77;101328.06;5045784;28;20453;-41
2021/09/27 01:35:34;;;;;;;17.83;14.85;;;;;;;16.16;85.90;101326.38;5041642;28;20503;-41
2021/09/27 01:38:13;;;;;;;24.40;15.93;;;;;;;16.16;85.86;101329.94;5032041;28;20497;-41
2021/09/27 01:40:47;;;;;;;20.08;16.00;;;;;;;16.16;85.99;101332.63;5034764;28;20033;-42
2021/09/27 01:43:22;;;;;;;19.83;15.57;;;;;;;16.15;86.11;101325.56;5034770;28;20022;-41
2021/09/27 01:46:09;;;;;;;21.60;15.82;;;;;;;16.18;85.73;101329.72;5023394;28;20381;-42
2021/09/27 01:48:43;;;;;;;18.23;14.70;;;;;;;16.18;85.91;101329.72;5039430;28;20085;-43
2021/09/27 01:51:19;;;;;;;19.23;15.55;;;;;;;16.12;86.01;101325.97;5043939;28;20029;-42
2021/09/27 01:54:02;;;;;;;20.33;14.80;;;;;;;16.12;86.11;101327.84;5034746;28;20099;-42
2021/09/27 01:56:56;;;;;;;20.85;15.63;;;;;;;16.08;86.22;101323.88;5034844;28;20147;-42
2021/09/27 02:00:00;;;;;;;21.10;15.82;;;;;;;16.06;86.46;101332.25;5044480;28;20061;-42
2021/09/27 02:02:30;;;;;;;19.35;16.25;;;;;;;16.08;86.62;101329.31;5052587;28;20377;-41
2021/09/27 02:05:09;;;;;;;21.25;15.68;;;;;;;16.12;86.47;101331.41;5055623;28;20037;-41
2021/09/27 02:07:40;;;;;;;21.10;15.85;;;;;;;16.18;85.83;101318.88;5055461;28;20032;-42
2021/09/27 02:10:17;;;;;;;20.95;15.77;;;;;;;16.21;85.61;101329.31;5027915;28;20061;-41
2021/09/27 02:12:50;;;;;;;20.65;16.40;;;;;;;16.18;85.70;101327.84;5029842;28;20029;-42
2021/09/27 02:15:29;;;;;;;22.88;16.67;;;;;;;16.18;85.60;101317.00;5015629;28;20034;-41
2021/09/27 02:18:25;;;;;;;20.38;16.55;;;;;;;16.17;85.69;101317.22;5014375;28;20030;-41
2021/09/27 02:20:57;;;;;;;20.58;16.73;;;;;;;16.12;85.78;101314.28;5035584;28;20539;-41
2021/09/27 02:23:31;;;;;;;21.05;16.25;;;;;;;16.09;86.24;101311.94;5034759;28;20072;-41
2021/09/27 02:25:56;;;;;;;24.25;17.50;;;;;;;16.05;86.27;101313.44;5034240;28;20035;-41
2021/09/27 02:28:23;;;;;;;23.42;17.25;;;;;;;16.03;86.38;101316.34;5037467;28;20108;-42
2021/09/27 02:31:06;;;;;;;24.73;17.65;;;;;;;16.01;86.14;101302.16;5053415;28;20053;-41
2021/09/27 02:33:57;;;;;;;23.30;18.10;;;;;;;16.00;86.21;101309.44;5052188;28;20079;-42
2021/09/27 02:36:46;;;;;;;21.13;16.98;;;;;;;15.98;86.09;101305.25;5054047;28;20085;-42
2021/09/27 02:39:38;;;;;;;21.77;16.48;;;;;;;15.91;86.09;101305.25;5043872;28;20060;-42
2021/09/27 02:42:11;;;;;;;21.85;17.02;;;;;;;15.86;86.16;101304.22;5033903;28;20025;-42
2021/09/27 02:44:37;;;;;;;23.20;16.15;;;;;;;15.88;85.96;101300.25;5049141;28;20059;-42
2021/09/27 02:47:05;;;;;;;20.33;16.20;;;;;;;15.85;85.86;101305.22;5046124;28;20029;-42
2021/09/27 02:49:41;;;;;;;23.13;17.15;;;;;;;15.78;85.77;101297.09;5034846;28;20400;-41
2021/09/27 02:52:06;;;;;;;23.10;17.05;;;;;;;15.75;85.83;101292.91;5033813;28;20033;-43
2021/09/27 02:54:41;;;;;;;26.33;16.23;;;;;;;15.74;85.73;101296.66;5051172;28;20038;-42
2021/09/27 02:57:20;;;;;;;23.75;17.08;;;;;;;15.75;85.49;101301.06;5054714;28;20025;-41
2021/09/27 03:00:12;;;;;;;22.65;16.75;;;;;;;15.70;85.40;101295.41;5039409;28;20457;-41
2021/09/27 03:02:57;;;;;;;20.13;16.05;;;;;;;15.68;85.58;101286.59;5046716;28;20095;-41
2021/09/27 03:05:53;;;;;;;19.10;15.45;;;;;;;15.70;85.35;101281.00;5016906;28;20033;-41
2021/09/27 03:08:40;;;;;;;23.95;17.00;;;;;;;15.70;85.40;101286.44;5047297;28;20021;-42
2021/09/27 03:11:38;;;;;;;23.15;16.33;;;;;;;15.63;85.60;101271.97;5016937;28;20026;-41
2021/09/27 03:14:42;;;;;;;21.85;16.33;;;;;;;15.58;85.75;101286.97;5033619;28;20025;-41
2021/09/27 03:17:10;;;;;;;23.27;16.50;;;;;;;15.56;86.06;101282.78;5037238;28;20052;-42
2021/09/27 03:19:35;;;;;;;;;;;;;;;15.52;85.99;101285.09;5042966;28;20064;-41
2021/09/27 03:22:25;;;;;;;20.10;15.97;;;;;;;15.52;86.14;101281.53;5034199;28;20367;-41
2021/09/27 03:25:08;;;;;;;22.48;16.70;;;;;;;15.49;86.06;101271.94;5034045;28;20268;-42
2021/09/27 03:27:56;;;;;;;26.60;17.75;;;;;;;15.41;86.70;101266.69;5042357;28;20032;-43
2021/09/27 03:30:39;;;;;;;21.77;17.15;;;;;;;15.41;86.79;101266.69;5040090;28;20402;-41
2021/09/27 03:33:07;;;;;;;25.02;17.10;;;;;;;15.40;86.59;101262.28;5043510;28;20443;-41
2021/09/27 03:35:47;;;;;;;;;;;;;;;15.36;86.79;101266.47;5038153;28;20060;-42
2021/09/27 03:38:12;;;;;;;22.45;17.55;;;;;;;15.30;86.85;101262.69;5035571;28;19975;-41
2021/09/27 03:40:52;;;;;;;25.58;17.77;;;;;;;15.27;87.07;101267.66;5033930;28;20029;-41
2021/09/27 03:43:27;;;;;;;21.08;16.98;;;;;;;15.25;86.84;101269.75;5033861;28;20047;-41
2021/09/27 03:46:14;;;;;;;23.33;17.27;;;;;;;15.25;86.95;101265.19;5054069;28;20033;-41
2021/09/27 03:48:51;;;;;;;23.02;17.35;;;;;;;15.22;86.84;101270.16;5053830;28;20024;-42
2021/09/27 03:51:24;;;;;;;24.42;19.20;;;;;;;15.18;87.25;101252.63;5053678;28;20111;-41
2021/09/27 03:54:02;;;;;;;27.92;19.00;;;;;;;15.15;87.40;101260.13;5047440;28;20132;-41
2021/09/27 03:56:56;;;;;;;27.48;19.33;;;;;;;15.15;87.19;101260.13;5052242;28;20086;-42
2021/09/27 03:59:52;;;;;;;23.42;18.30;;;;;;;15.12;87.26;101265.94;5034028;28;20046;-42
2021/09/27 04:02:26;;;;;;;26.88;18.67;;;;;;;15.11;87.22;101258.88;5043577;28;20021;-42
2021/09/27 04:05:13;;;;;;;28.08;18.17;;;;;;;15.11;87.16;101258.88;5032450;28;20104;-42
2021/09/27 04:07:55;;;;;;;26.58;18.65;;;;;;;15.06;87.24;101250.50;5039848;28;20032;-42
2021/09/27 04:10:30;;;;;;;24.70;17.35;;;;;;;15.03;87.36;101244.63;5051943;28;20049;-41
2021/09/27 04:13:21;;;;;;;24.92;17.45;;;;;;;14.98;87.47;101250.66;5050022;28;20033;-42
2021/09/27 04:15:50;;;;;;;24.70;18.45;;;;;;;14.95;87.74;101242.91;5038409;28;20447;-41
2021/09/27 04:18:15;;;;;;;22.92;17.75;;;;;;;14.92;87.45;101248.75;5032944;28;20021;-41
2021/09/27 04:20:40;;;;;;;25.13;17.90;;;;;;;14.90;87.44;101239.97;5048350;28;20037;-41
2021/09/27 04:23:17;;;;;;;26.33;18.10;;;;;;;14.84;87.97;101243.50;5052792;28;20104;-42
2021/09/27 04:25:45;;;;;;;26.42;19.05;;;;;;;14.82;87.64;101243.69;5045562;28;20032;-42
2021/09/27 04:28:30;;;;;;;;;;;;;;;14.76;88.28;101240.94;5035314;28;20499;-41
2021/09/27 04:31:06;;;;;;;28.15;19.55;;;;;;;14.74;88.73;101243.03;5028366;28;20007;-41
2021/09/27 04:33:50;;;;;;;31.10;19.42;;;;;;;14.73;88.56;101241.34;5040366;28;20075;-43
2021/09/27 04:36:23;;;;;;;29.58;19.30;;;;;;;14.68;88.78;101242.78;5042486;28;20051;-42
2021/09/27 04:38:50;;;;;;;29.02;20.65;;;;;;;14.66;89.13;101239.41;5040586;28;20029;-42
2021/09/27 04:41:28;;;;;;;28.77;20.83;;;;;;;14.67;89.16;101240.28;5043372;28;20036;-41
2021/09/27 04:44:05;;;;;;;29.38;20.67;;;;;;;14.68;89.06;101237.34;5050026;28;20507;-42
2021/09/27 04:46:41;;;;;;;28.75;20.55;;;;;;;14.67;88.99;101235.69;5052875;28;20025;-41
2021/09/27 04:49:14;;;;;;;29.42;20.67;;;;;;;14.67;89.06;101235.69;5052806;28;20037;-41
2021/09/27 04:51:54;;;;;;;28.67;20.40;;;;;;;14.74;88.96;101234.88;5047512;28;20032;-41
2021/09/27 04:54:57;;;;;;;33.50;22.17;;;;;;;14.74;89.02;101240.31;5031779;28;20036;-41
2021/09/27 04:57:26;;;;;;;33.05;22.52;;;;;;;14.73;89.09;101234.06;5031939;28;20033;-42
2021/09/27 05:00:01;;;;;;;31.35;22.33;;;;;;;14.73;89.40;101225.09;5034954;28;20014;-41
2021/09/27 05:03:07;;;;;;;32.38;22.80;;;;;;;14.74;89.57;101224.06;5032795;28;20451;-42
2021/09/27 05:05:55;;;;;;;32.50;21.63;;;;;;;14.75;89.17;101209.50;5011460;28;20042;-42
2021/09/27 05:08:58;;;;;;;30.80;22.02;;;;;;;14.69;89.71;101216.50;5011588;28;20018;-41
2021/09/27 05:11:27;;;;;;;31.20;21.83;;;;;;;14.70;89.65;101207.38;4997359;28;20408;-40
2021/09/27 05:14:26;;;;;;;30.58;21.48;;;;;;;14.71;89.78;101201.72;5009057;28;20038;-41
2021/09/27 05:17:00;;;;;;;31.65;21.27;;;;;;;14.67;89.78;101202.34;5026993;28;20033;-41
2021/09/27 05:19:38;;;;;;;32.25;22.30;;;;;;;14.67;90.00;101195.06;5032118;28;20096;-41
2021/09/27 05:22:18;;;;;;;31.90;21.20;;;;;;;14.67;89.88;101186.09;5035205;28;20396;-42
2021/09/27 05:24:56;;;;;;;32.03;20.88;;;;;;;14.68;89.78;101188.59;5034872;28;20033;-42
2021/09/27 05:27:58;;;;;;;30.58;21.25;;;;;;;14.70;89.94;101183.00;5038736;28;20041;-41
2021/09/27 05:30:34;;;;;;;30.42;19.98;;;;;;;14.74;89.57;101186.13;5031697;28;20077;-41
2021/09/27 05:33:26;;;;;;;31.08;21.05;;;;;;;14.78;89.57;101187.41;5034467;28;20443;-41
2021/09/27 05:36:17;;;;;;;30.73;21.00;;;;;;;14.75;89.74;101176.97;5021638;28;20040;-41
2021/09/27 05:39:10;;;;;;;29.52;19.48;;;;;;;14.81;89.57;101174.28;5040380;28;20387;-40
2021/09/27 05:41:54;;;;;;;28.13;20.58;;;;;;;14.86;89.09;101182.63;5035359;28;20116;-41
2021/09/27 05:44:25;;;;;;;30.65;20.95;;;;;;;14.85;89.24;101180.97;5032035;28;20041;-41
2021/09/27 05:47:04;;;;;;;30.52;20.88;;;;;;;14.86;89.46;101181.81;5033898;28;20036;-41
2021/09/27 05:49:55;;;;;;;31.23;21.65;;;;;;;14.84;89.35;101178.47;5040477;28;20364;-41
2021/09/27 05:52:35;;;;;;;30.48;21.42;;;;;;;14.90;89.14;101183.06;5033726;28;20171;-42
2021/09/27 05:55:32;;;;;;;31.40;20.70;;;;;;;14.90;89.15;101175.78;5030390;28;20029;-42
2021/09/27 05:58:04;;;;;;;30.15;20.73;;;;;;;14.93;89.14;101177.25;5044542;28;20033;-41
2021/09/27 06:00:51;;;;;;;31.05;20.25;;;;;;;14.92;89.14;101170.97;5041394;28;20018;-42
2021/09/27 06:03:34;;;;;;;27.30;20.52;;;;;;;15.00;88.70;101180.81;5038375;28;20065;-42
2021/09/27 06:06:07;;;;;;;28.48;19.88;;;;;;;15.04;88.71;101171.25;5035850;28;20170;-42
2021/09/27 06:08:44;;;;;;;28.02;18.38;;;;;;;15.13;88.37;101185.44;5051283;28;20387;-43
2021/09/27 06:11:38;;;;;;;26.60;18.73;;;;;;;15.20;88.19;101180.06;5048879;28;20077;-42
2021/09/27 06:14:04;;;;;;;21.08;17.10;;;;;;;15.22;87.97;101178.81;5033072;28;20025;-42
2021/09/27 06:16:48;;;;;;;24.02;18.00;;;;;;;15.20;88.24;101175.47;5049561;28;20048;-42
2021/09/27 06:19:22;;;;;;;23.95;16.95;;;;;;;15.30;87.60;101178.63;5045642;28;20033;-42
2021/09/27 06:22:12;;;;;;;19.80;16.13;;;;;;;15.35;87.60;101175.31;5031419;28;20103;-42
2021/09/27 06:25:08;;;;;;;20.70;16.27;;;;;;;15.44;87.36;101171.34;5031259;28;20492;-42
2021/09/27 06:27:47;;;;;;;42.05;17.13;;;;;;;15.47;87.06;101170.09;5037004;28;20034;-41
2021/09/27 06:30:38;;;;;;;21.75;14.38;;;;;;;15.48;86.73;101160.91;5038599;28;20050;-42
2021/09/27 06:33:14;;;;;;;14.63;13.05;;;;;;;15.52;86.42;101149.44;5032189;28;20052;-42
2021/09/27 06:35:41;;;;;;;18.67;13.60;;;;;;;15.62;86.14;101135.47;5019069;28;20075;-42
2021/09/27 06:38:10;;;;;;;15.50;11.93;;;;;;;15.62;85.88;101134.66;5043538;28;20111;-41
2021/09/27 06:40:42;;;;;;;15.93;12.02;;;;;;;15.63;85.93;101133.59;5020744;28;20456;-43
2021/09/27 06:43:12;;;;;;;12.77;10.82;;;;;;;15.66;85.78;101128.56;5034882;28;20029;-41
2021/09/27 06:45:37;;;;;;;13.25;10.50;;;;;;;15.70;85.26;101129.88;5035217;28;20024;-41
2021/09/27 06:48:03;;;;;;;15.43;10.90;;;;;;;15.71;85.54;101123.38;5035121;28;20085;-43
2021/09/27 06:50:29;;;;;;;13.63;10.82;;;;;;;15.75;85.34;101131.97;5017103;28;20120;-41
2021/09/27 06:52:54;;;;;;;11.35;10.13;;;;;;;15.79;85.02;101122.34;5038401;28;20033;-39
2021/09/27 06:55:19;;;;;;;11.40;10.20;;;;;;;15.79;85.21;101125.06;5009752;28;20050;-41
2021/09/27 06:57:45;;;;;;;13.38;10.65;;;;;;;15.83;85.39;101130.94;5044754;28;20078;-41
2021/09/27 07:00:12;;;;;;;15.68;10.73;;;;;;;15.86;85.48;101131.31;5040514;28;20030;-42
2021/09/27 07:02:38;;;;;;;13.05;10.63;;;;;;;15.86;85.43;101125.91;5034907;28;20077;-42
2021/09/27 07:05:03;;;;;;;12.80;9.98;;;;;;;15.89;85.13;101124.66;5036454;28;20028;-43
2021/09/27 07:07:29;;;;;;;12.45;10.20;;;;;;;15.92;85.25;101135.91;5034490;28;20067;-42
2021/09/27 07:09:54;;;;;;;12.32;9.98;;;;;;;16.05;84.82;101145.09;5038253;28;20033;-42
2021/09/27 07:12:19;;;;;;;11.85;10.02;;;;;;;16.07;84.82;101135.69;5038844;28;20026;-42
2021/09/27 07:14:45;;;;;;;15.35;10.63;;;;;;;16.01;84.75;101140.09;5035019;28;20029;-42
2021/09/27 07:17:10;;;;;;;12.15;9.88;;;;;;;16.00;85.54;101132.16;5021954;28;20030;-41
2021/09/27 07:19:35;;;;;;;15.68;10.73;;;;;;;16.01;85.32;101148.25;5046614;28;20488;-41
2021/09/27 07:22:01;;;;;;;15.45;11.52;;;;;;;16.01;85.28;101156.38;5034854;28;20080;-42
2021/09/27 07:24:26;;;;;;;14.52;11.68;;;;;;;16.04;85.42;101157.84;5035424;28;20513;-41
2021/09/27 07:26:52;;;;;;;14.68;12.65;;;;;;;16.01;85.78;101133.84;5034092;28;20111;-42
2021/09/27 07:29:17;;;;;;;17.60;13.10;;;;;;;16.13;85.44;101132.13;5037180;28;20025;-42
2021/09/27 07:31:43;;;;;;;15.77;13.80;;;;;;;16.14;85.58;101127.53;5033838;28;20112;-41
2021/09/27 07:34:09;;;;;;;17.48;15.35;;;;;;;16.17;85.42;101133.38;5038105;28;20112;-42
2021/09/27 07:36:36;;;;;;;17.85;15.05;;;;;;;16.33;84.85;101137.53;5032556;28;20065;-42
2021/09/27 07:39:04;;;;;;;17.38;15.57;;;;;;;16.22;85.24;101113.75;5029489;28;20033;-41
2021/09/27 07:41:29;;;;;;;18.98;16.98;;;;;;;16.20;85.52;101110.41;5021787;28;20053;-42
2021/09/27 07:43:56;;;;;;;18.83;16.85;;;;;;;16.19;85.57;101115.00;5020190;28;20477;-44
2021/09/27 07:46:22;;;;;;;19.15;17.13;;;;;;;16.13;85.74;101113.13;5041570;28;20449;-41
2021/09/27 07:48:48;;;;;;;21.25;17.65;;;;;;;16.18;85.96;101104.34;5051655;28;20029;-44
2021/09/27 07:51:13;;;;;;;19.65;17.50;;;;;;;16.21;86.08;101110.16;5032937;28;20479;-42
2021/09/27 07:53:39;;;;;;;23.23;18.55;;;;;;;16.30;85.59;101116.22;5041351;28;20040;-42
2021/09/27 07:56:04;;;;;;;21.67;19.25;;;;;;;16.33;85.50;101123.94;5053340;28;20033;-41
2021/09/27 07:58:30;;;;;;;21.60;19.23;;;;;;;16.41;85.24;101121.00;5041954;28;20448;-41
2021/09/27 08:00:55;;;;;;;23.98;20.13;;;;;;;16.40;85.10;101126.63;5037434;28;20041;-42
2021/09/27 08:03:21;;;;;;;22.05;19.67;;;;;;;16.36;85.41;101123.50;5033121;28;20033;-41
2021/09/27 08:05:47;;;;;;;23.33;20.40;;;;;;;16.32;85.62;101108.69;5049833;28;20104;-42
2021/09/27 08:08:12;;;;;;;24.80;20.23;;;;;;;16.38;85.48;101102.41;5033127;28;20105;-42
2021/09/27 08:10:39;;;;;;;24.00;19.75;;;;;;;16.44;85.22;101104.25;5031863;28;20391;-41
2021/09/27 08:13:06;;;;;;;23.40;18.92;;;;;;;16.52;84.73;101092.31;5046273;28;20032;-41
2021/09/27 08:15:35;;;;;;;22.52;18.95;;;;;;;16.58;84.64;101085.19;5030907;28;20435;-41
2021/09/27 08:18:01;;;;;;;21.67;17.85;;;;;;;16.67;84.20;101083.91;5035231;28;20047;-41
2021/09/27 08:20:31;;;;;;;19.85;17.83;;;;;;;16.82;83.95;101070.03;5037151;28;20025;-42
2021/09/27 08:22:56;;;;;;;21.73;18.08;;;;;;;16.97;83.32;101067.88;5035340;28;20052;-42
2021/09/27 08:25:23;;;;;;;17.90;15.95;;;;;;;17.09;82.67;101074.28;5031554;28;20029;-42
2021/09/27 08:27:48;;;;;;;18.52;16.63;;;;;;;17.09;82.57;101071.56;5043618;28;20427;-43
2021/09/27 08:30:19;;;;;;;21.92;14.75;;;;;;;17.07;82.39;101068.22;5044244;28;20049;-42
2021/09/27 08:32:45;;;;;;;16.58;14.88;;;;;;;17.07;82.38;101068.22;5034924;28;20113;-41
2021/09/27 08:35:11;;;;;;;15.88;13.35;;;;;;;17.13;82.22;101065.69;5033764;28;20292;-42
2021/09/27 08:37:38;;;;;;;14.38;12.98;;;;;;;17.15;81.54;101055.44;5044206;28;20025;-41
2021/09/27 08:40:04;;;;;;;14.32;12.68;;;;;;;17.19;81.28;101065.63;5040774;28;20506;-42
2021/09/27 08:42:36;;;;;;;15.57;12.82;;;;;;;17.25;81.27;101053.88;5037093;28;20397;-43
2021/09/27 08:45:09;;;;;;;15.93;11.60;;;;;;;17.28;80.64;101063.50;5031219;28;20057;-42
2021/09/27 08:48:07;;;;;;;15.35;11.68;;;;;;;17.36;80.61;101056.94;5031322;28;20392;-42
2021/09/27 08:50:43;;;;;;;15.02;12.63;;;;;;;17.54;80.23;101046.09;5011270;28;20038;-42
2021/09/27 08:53:31;;;;;;;14.65;12.50;;;;;;;17.57;80.09;101048.38;5033247;28;20033;-45
2021/09/27 08:56:01;;;;;;;13.32;11.32;;;;;;;17.52;79.88;101048.22;5011761;28;20037;-42
2021/09/27 08:58:52;;;;;;;16.55;11.15;;;;;;;17.57;79.73;101050.28;5021070;28;20108;-41
2021/09/27 09:01:25;;;;;;;11.88;9.75;;;;;;;17.51;79.58;101057.44;5031872;28;20481;-42
2021/09/27 09:04:07;;;;;;;12.15;9.88;;;;;;;17.52;79.61;101056.38;5048382;28;20036;-45
2021/09/27 09:06:42;;;;;;;10.38;8.95;;;;;;;17.46;79.23;101051.84;5019789;28;20040;-41
2021/09/27 09:09:25;;;;;;;10.27;8.07;;;;;;;17.51;79.49;101041.13;5050099;28;20059;-42
2021/09/27 09:11:56;;;;;;;8.55;7.65;;;;;;;17.45;79.31;101048.25;5048059;28;20033;-41
2021/09/27 09:14:57;;;;;;;9.27;6.65;;;;;;;17.45;78.97;101047.44;5030642;28;20553;-42
2021/09/27 09:17:59;;;;;;;8.00;7.15;;;;;;;17.49;78.85;101026.91;5033812;28;20544;-42
2021/09/27 09:20:43;;;;;;;7.97;6.53;;;;;;;17.61;78.28;101030.53;5027515;28;20037;-41
2021/09/27 09:23:13;;;;;;;8.07;6.05;;;;;;;17.65;78.41;101023.59;5040396;28;20079;-42
2021/09/27 09:25:39;;;;;;;6.82;5.95;;;;;;;17.73;77.73;101027.91;5030010;28;20021;-41
2021/09/27 09:28:08;;;;;;;6.20;5.60;;;;;;;17.73;78.04;101023.31;5043371;28;20435;-41
2021/09/27 09:30:46;;;;;;;7.97;5.70;;;;;;;17.80;77.98;101030.59;5039799;28;20057;-41
2021/09/27 09:33:38;;;;;;;7.35;5.50;;;;;;;17.83;77.83;101035.63;5043173;28;20495;-40
2021/09/27 09:36:04;;;;;;;6.40;5.32;;;;;;;17.82;77.61;101034.75;5041069;28;20479;-41
2021/09/27 09:38:35;;;;;;;7.63;5.30;;;;;;;17.93;77.57;101030.44;5043971;28;20052;-41
2021/09/27 09:41:02;;;;;;;5.90;5.28;;;;;;;17.94;77.45;101029.41;5039017;28;20389;-41
2021/09/27 09:43:36;;;;;;;5.93;5.03;;;;;;;17.94;77.17;101037.56;5043212;28;20025;-41
2021/09/27 09:46:11;;;;;;;8.13;5.18;;;;;;;17.90;76.76;101026.28;5029563;28;20143;-41
2021/09/27 09:48:57;;;;;;;4.82;3.90;;;;;;;17.83;77.12;101022.81;5031134;28;20048;-41
2021/09/27 09:51:33;;;;;;;5.97;3.60;;;;;;;17.77;76.85;101024.53;5030496;28;20029;-41
2021/09/27 09:54:10;;;;;;;7.57;3.72;;;;;;;17.89;76.72;101027.34;5047203;28;20040;-42
2021/09/27 09:56:38;;;;;;;7.30;2.90;;;;;;;17.93;76.18;101027.72;5009055;28;20037;-42
2021/09/27 09:59:22;;;;;;;5.80;2.70;;;;;;;18.01;76.08;101027.47;5051539;28;20480;-41
2021/09/27 10:01:51;;;;;;;5.47;2.75;;;;;;;18.13;75.73;101022.06;5052562;28;20041;-43
2021/09/27 10:04:23;;;;;;;3.28;2.40;;;;;;;18.29;74.87;101021.44;5051128;28;20167;-41
2021/09/27 10:06:54;;;;;;;5.63;2.55;;;;;;;18.38;74.37;101024.72;5049984;28;20471;-42
2021/09/27 10:09:44;;;;;;;5.53;2.08;;;;;;;18.37;73.59;101023.84;5051888;28;20033;-43
2021/09/27 10:12:14;;;;;;;3.25;2.08;;;;;;;18.44;73.77;101029.22;5052650;28;20035;-42
2021/09/27 10:14:43;;;;;;;6.32;2.28;;;;;;;18.65;72.79;101022.44;5054406;28;20510;-42
2021/09/27 10:17:25;;;;;;;2.45;2.10;;;;;;;18.59;72.52;101013.31;5055468;28;20029;-43
2021/09/27 10:20:03;;;;;;;7.80;2.08;;;;;;;18.54;71.99;101001.44;5054678;28;20429;-43
2021/09/27 10:22:30;;;;;;;3.65;1.98;;;;;;;18.69;72.47;101003.72;5055526;28;20530;-43
2021/09/27 10:24:59;;;;;;;7.50;2.10;;;;;;;18.71;72.20;101002.44;5054471;28;20029;-43
2021/09/27 10:27:37;;;;;;;3.75;2.08;;;;;;;18.77;71.62;101000.69;5055439;28;20025;-43
2021/09/27 10:30:10;;;;;;;4.95;2.03;;;;;;;18.74;71.15;100995.69;5054165;28;20115;-42
2021/09/27 10:32:46;;;;;;;2.55;1.83;;;;;;;18.82;71.49;100988.03;5054187;28;20029;-43
2021/09/27 10:35:37;;;;;;;3.17;1.80;;;;;;;19.02;71.20;100998.63;5054212;28;20422;-42
2021/09/27 10:38:07;;;;;;;4.50;2.10;;;;;;;19.01;70.82;101002.44;5054164;28;20489;-41
2021/09/27 10:40:34;;;;;;;4.82;2.10;;;;;;;19.32;70.15;101003.19;5053995;28;20025;-41
2021/09/27 10:43:00;;;;;;;5.82;1.98;;;;;;;19.30;69.72;101002.59;5055240;28;20109;-41
2021/09/27 10:45:26;;;;;;;9.10;1.73;;;;;;;19.41;68.85;100999.06;5054190;28;20033;-42
2021/09/27 10:47:54;;;;;;;7.55;1.90;;;;;;;19.42;69.10;101003.44;5055227;28;20033;-42
2021/09/27 10:50:26;;;;;;;5.88;2.00;;;;;;;19.39;69.06;100995.72;5054836;28;20021;-41
2021/09/27 10:52:51;;;;;;;2.45;1.90;;;;;;;19.36;69.20;100993.47;5053781;28;20029;-42
2021/09/27 10:55:44;;;;;;;6.27;1.80;;;;;;;19.27;69.45;100983.94;5053785;28;20082;-41
2021/09/27 10:58:11;;;;;;;5.63;1.90;;;;;;;19.26;69.64;100979.56;5027795;28;20299;-42
2021/09/27 11:00:46;;;;;;;;;;;;;;;19.31;69.06;100990.63;5037463;28;20507;-39
2021/09/27 11:03:20;;;;;;;6.43;1.63;;;;;;;19.27;69.65;100978.50;5024322;28;19921;-42
2021/09/27 11:06:18;;;;;;;5.72;1.73;;;;;;;19.45;69.11;100972.91;5038521;28;20439;-42
2021/09/27 11:09:11;;;;;;;3.03;1.42;;;;;;;19.41;68.65;100958.09;5024378;28;20041;-43
2021/09/27 11:11:40;;;;;;;4.22;1.58;;;;;;;19.59;68.37;100959.03;5025775;28;20033;-42
2021/09/27 11:14:41;;;;;;;15.38;2.05;;;;;;;19.56;68.41;100964.97;5023066;28;20536;-43
2021/09/27 11:17:06;;;;;;;3.60;1.42;;;;;;;19.62;68.03;100962.13;5027872;28;20034;-43
2021/09/27 11:19:32;;;;;;;4.45;1.50;;;;;;;19.44;67.69;100963.09;5025482;28;20029;-42
2021/09/27 11:22:17;;;;;;;6.25;1.48;;;;;;;19.48;68.09;100975.19;5022605;28;20433;-42
2021/09/27 11:24:43;;;;;;;3.03;1.17;;;;;;;19.50;68.06;100977.69;5021457;28;20022;-43
2021/09/27 11:27:12;;;;;;;3.20;1.40;;;;;;;19.33;67.63;100980.31;5021240;28;20333;-42
2021/09/27 11:29:39;;;;;;;4.07;1.40;;;;;;;19.20;68.68;100977.81;5025997;28;20042;-42
2021/09/27 11:32:22;;;;;;;4.28;1.67;;;;;;;19.13;68.76;100974.34;5045069;28;20064;-42
2021/09/27 11:34:58;;;;;;;6.47;1.95;;;;;;;18.63;73.04;100979.06;5027520;28;20121;-42
2021/09/27 11:37:36;;;;;;;7.32;1.80;;;;;;;18.47;73.27;100985.16;5042144;28;20025;-42
2021/09/27 11:40:10;;;;;;;2.30;1.55;;;;;;;18.32;76.34;100971.94;5033986;28;20086;-42
2021/09/27 11:42:47;;;;;;;4.00;2.20;;;;;;;18.08;77.24;100990.06;5033503;28;20425;-42
2021/09/27 11:45:17;;;;;;;4.03;2.20;;;;;;;17.96;78.09;100983.72;5033864;28;20036;-42
2021/09/27 11:47:43;;;;;;;6.30;2.63;;;;;;;17.86;79.30;100978.81;5033877;28;20033;-42
2021/09/27 11:50:28;;;;;;;3.40;2.17;;;;;;;17.77;79.86;100975.53;5033896;28;20099;-42
2021/09/27 11:53:40;;;;;;;2.67;2.03;;;;;;;17.70;79.86;100977.47;5033765;28;20121;-44